createdAt,value
2023-03-12T00:01:59.666Z,100777.44
2023-03-12T00:04:26.873Z,100778.47
2023-03-12T00:06:53.604Z,100771.69
2023-03-12T00:09:20.014Z,100782.22
2023-03-12T00:11:46.394Z,100787.91
2023-03-12T00:14:12.752Z,100776.09
2023-03-12T00:16:39.170Z,100773.78
2023-03-12T00:19:05.550Z,100775.19
2023-03-12T00:21:31.958Z,100771.28
2023-03-12T00:23:58.365Z,100768.22
2023-03-12T00:26:24.844Z,100774.84
2023-03-12T00:28:51.615Z,100770.28
2023-03-12T00:31:27.844Z,100755.84
2023-03-12T00:33:55.991Z,100765.38
2023-03-12T00:36:26.150Z,100763.75
2023-03-12T00:38:53.642Z,100758.81
2023-03-12T00:41:21.314Z,100760.91
2023-03-12T00:43:49.045Z,100755.94
2023-03-12T00:46:15.683Z,100749.16
2023-03-12T00:48:42.377Z,100749.00
2023-03-12T00:51:09.456Z,100749.78
2023-03-12T00:53:36.568Z,100741.09
2023-03-12T00:56:04.287Z,100743.56
2023-03-12T00:58:30.898Z,100745.63
2023-03-12T01:00:57.340Z,100744.81
2023-03-12T01:03:23.912Z,100742.78
2023-03-12T01:05:54.652Z,100738.59
2023-03-12T01:08:22.404Z,100741.50
2023-03-12T01:10:48.861Z,100753.09
2023-03-12T01:13:15.488Z,100747.69
2023-03-12T01:15:41.844Z,100737.78
2023-03-12T01:18:08.265Z,100741.50
2023-03-12T01:20:34.783Z,100748.38
2023-03-12T01:23:01.245Z,100740.75
2023-03-12T01:25:27.773Z,100734.09
2023-03-12T01:27:54.125Z,100732.69
2023-03-12T01:30:20.484Z,100733.94
2023-03-12T01:32:46.942Z,100727.94
2023-03-12T01:35:13.510Z,100721.25
2023-03-12T01:37:39.957Z,100720.44
2023-03-12T01:40:06.654Z,100712.81
2023-03-12T01:42:33.003Z,100717.59
2023-03-12T01:45:01.784Z,100706.47
2023-03-12T01:47:31.766Z,100710.41
2023-03-12T01:50:00.924Z,100706.28
2023-03-12T01:52:27.223Z,100708.75
2023-03-12T01:55:23.171Z,100704.41
2023-03-12T01:57:53.722Z,100701.28
2023-03-12T02:00:23.380Z,100701.50
2023-03-12T02:02:52.155Z,100695.13
2023-03-12T02:05:51.267Z,100688.31
2023-03-12T02:08:18.521Z,100682.50
2023-03-12T02:10:45.731Z,100683.75
2023-03-12T02:13:12.619Z,100661.69
2023-03-12T02:15:39.868Z,100662.31
2023-03-12T02:18:11.381Z,100664.75
2023-03-12T02:20:43.766Z,100661.06
2023-03-12T02:23:16.420Z,100662.31
2023-03-12T02:25:47.627Z,100661.09
2023-03-12T02:28:15.924Z,100655.34
2023-03-12T02:30:47.081Z,100643.81
2023-03-12T02:33:15.295Z,100650.66
2023-03-12T02:35:42.272Z,100655.59
2023-03-12T02:38:33.785Z,100656.66
2023-03-12T02:41:05.214Z,100654.97
2023-03-12T02:43:31.632Z,100661.59
2023-03-12T02:45:58.024Z,100658.28
2023-03-12T02:48:24.390Z,100656.47
2023-03-12T02:50:50.788Z,100654.66
2023-03-12T02:53:17.194Z,100646.97
2023-03-12T02:55:43.557Z,100644.72
2023-03-12T02:58:09.910Z,100646.97
2023-03-12T03:00:37.667Z,100657.09
2023-03-12T03:03:04.054Z,100656.28
2023-03-12T03:05:30.412Z,100653.84
2023-03-12T03:07:56.914Z,100650.72
2023-03-12T03:10:23.313Z,100651.34
2023-03-12T03:12:50.069Z,100655.91
2023-03-12T03:15:16.729Z,100640.59
2023-03-12T03:17:43.338Z,100636.47
2023-03-12T03:20:11.853Z,100634.81
2023-03-12T03:22:39.145Z,100640.59
2023-03-12T03:25:07.360Z,100639.34
2023-03-12T03:27:33.855Z,100647.59
2023-03-12T03:30:00.342Z,100632.75
2023-03-12T03:32:27.286Z,100618.47
2023-03-12T03:34:53.803Z,100602.59
2023-03-12T03:37:20.214Z,100614.53
2023-03-12T03:39:46.643Z,100621.72
2023-03-12T03:42:13.022Z,100615.78
2023-03-12T03:44:39.454Z,100620.09
2023-03-12T03:47:05.996Z,100618.66
2023-03-12T03:49:32.385Z,100619.50
2023-03-12T03:51:58.735Z,100627.75
2023-03-12T03:54:25.150Z,100631.44
2023-03-12T03:56:51.498Z,100617.66
2023-03-12T03:59:17.924Z,100619.91
2023-03-12T04:01:44.312Z,100615.78
2023-03-12T04:04:10.713Z,100617.66
2023-03-12T04:06:37.189Z,100610.03
2023-03-12T04:09:04.175Z,100606.72
2023-03-12T04:11:30.596Z,100612.28
2023-03-12T04:13:57.555Z,100608.78
2023-03-12T04:16:24.698Z,100616.25
2023-03-12T04:18:51.118Z,100609.22
2023-03-12T04:21:17.680Z,100602.22
2023-03-12T04:23:44.176Z,100608.81
2023-03-12T04:26:10.840Z,100611.06
2023-03-12T04:28:37.757Z,100606.75
2023-03-12T04:31:06.941Z,100603.44
2023-03-12T04:33:36.462Z,100598.47
2023-03-12T04:36:03.835Z,100581.13
2023-03-12T04:38:30.860Z,100587.34
2023-03-12T04:41:01.808Z,100585.28
2023-03-12T04:43:29.576Z,100590.22
2023-03-12T04:45:56.148Z,100590.44
2023-03-12T04:48:22.726Z,100591.66
2023-03-12T04:50:50.286Z,100588.16
2023-03-12T04:53:17.137Z,100585.88
2023-03-12T04:55:43.538Z,100590.22
2023-03-12T04:58:10.039Z,100585.69
2023-03-12T05:00:36.624Z,100581.56
2023-03-12T05:03:03.110Z,100584.41
2023-03-12T05:05:29.519Z,100584.41
2023-03-12T05:07:55.892Z,100577.19
2023-03-12T05:10:22.327Z,100586.47
2023-03-12T05:12:48.739Z,100583.16
2023-03-12T05:15:17.723Z,100587.69
2023-03-12T05:17:44.520Z,100575.09
2023-03-12T05:20:12.181Z,100589.94
2023-03-12T05:22:38.988Z,100566.81
2023-03-12T05:25:06.095Z,100568.03
2023-03-12T05:27:32.831Z,100565.78
2023-03-12T05:29:59.234Z,100559.38
2023-03-12T05:32:25.806Z,100555.84
2023-03-12T05:34:52.238Z,100543.03
2023-03-12T05:37:18.725Z,100537.66
2023-03-12T05:39:46.670Z,100546.09
2023-03-12T05:42:14.511Z,100539.88
2023-03-12T05:44:41.758Z,100545.47
2023-03-12T05:47:08.586Z,100528.13
2023-03-12T05:49:35.109Z,100524.00
2023-03-12T05:52:01.529Z,100527.91
2023-03-12T05:54:29.126Z,100528.34
2023-03-12T05:56:56.307Z,100523.78
2023-03-12T05:59:22.815Z,100510.81
2023-03-12T06:01:49.281Z,100510.81
2023-03-12T06:04:15.661Z,100507.06
2023-03-12T06:06:42.333Z,100501.94
2023-03-12T06:09:08.667Z,100504.00
2023-03-12T06:11:35.410Z,100493.28
2023-03-12T06:14:02.061Z,100490.41
2023-03-12T06:16:29.652Z,100484.81
2023-03-12T06:18:58.811Z,100483.56
2023-03-12T06:21:28.627Z,100481.91
2023-03-12T06:23:55.419Z,100490.38
2023-03-12T06:26:22.673Z,100481.31
2023-03-12T06:28:50.582Z,100488.53
2023-03-12T06:31:17.997Z,100490.22
2023-03-12T06:33:44.497Z,100486.09
2023-03-12T06:36:11.639Z,100480.31
2023-03-12T06:38:38.832Z,100481.78
2023-03-12T06:41:17.388Z,100488.97
2023-03-12T06:43:44.911Z,100476.41
2023-03-12T06:46:17.033Z,100486.91
2023-03-12T06:48:46.110Z,100485.66
2023-03-12T06:51:14.574Z,100495.34
2023-03-12T06:53:42.616Z,100488.59
2023-03-12T06:56:09.928Z,100483.22
2023-03-12T06:58:36.308Z,100477.22
2023-03-12T07:01:03.645Z,100484.03
2023-03-12T07:03:29.999Z,100489.81
2023-03-12T07:05:57.856Z,100494.16
2023-03-12T07:08:25.407Z,100492.31
2023-03-12T07:10:51.752Z,100485.72
2023-03-12T07:13:18.174Z,100490.25
2023-03-12T07:15:46.413Z,100492.72
2023-03-12T07:18:12.861Z,100499.56
2023-03-12T07:20:41.722Z,100498.31
2023-03-12T07:23:08.798Z,100498.94
2023-03-12T07:25:37.535Z,100491.09
2023-03-12T07:28:04.428Z,100490.69
2023-03-12T07:30:33.306Z,100487.59
2023-03-12T07:33:02.155Z,100483.25
2023-03-12T07:35:29.696Z,100488.84
2023-03-12T07:37:56.210Z,100488.41
2023-03-12T07:40:22.933Z,100499.78
2023-03-12T07:42:50.991Z,100485.72
2023-03-12T07:45:18.584Z,100488.63
2023-03-12T07:47:45.919Z,100482.63
2023-03-12T07:50:13.273Z,100491.31
2023-03-12T07:52:39.728Z,100480.34
2023-03-12T07:55:07.144Z,100482.66
2023-03-12T07:57:33.759Z,100479.75
2023-03-12T08:00:00.209Z,100482.22
2023-03-12T08:02:26.700Z,100488.22
2023-03-12T08:04:53.092Z,100483.69
2023-03-12T08:07:19.575Z,100472.94
2023-03-12T08:09:49.427Z,100473.31
2023-03-12T08:12:16.252Z,100469.63
2023-03-12T08:14:42.725Z,100477.47
2023-03-12T08:17:09.138Z,100480.78
2023-03-12T08:19:35.560Z,100470.03
2023-03-12T08:22:01.873Z,100473.31
2023-03-12T08:24:28.287Z,100481.59
2023-03-12T08:26:54.767Z,100482.63
2023-03-12T08:29:21.075Z,100485.31
2023-03-12T08:32:03.454Z,100480.97
2023-03-12T08:34:30.767Z,100484.47
2023-03-12T08:36:57.327Z,100486.53
2023-03-12T08:39:23.664Z,100485.69
2023-03-12T08:41:51.626Z,100483.66
2023-03-12T08:44:18.094Z,100485.69
2023-03-12T08:46:44.474Z,100485.44
2023-03-12T08:49:10.775Z,100479.50
2023-03-12T08:51:37.225Z,100482.19
2023-03-12T08:54:05.240Z,100472.44
2023-03-12T08:56:32.100Z,100469.34
2023-03-12T08:58:59.444Z,100466.44
2023-03-12T09:01:25.826Z,100463.75
2023-03-12T09:03:55.060Z,100461.06
2023-03-12T09:06:21.475Z,100461.22
2023-03-12T09:08:48.009Z,100462.47
2023-03-12T09:11:15.007Z,100454.59
2023-03-12T09:14:05.109Z,100459.53
2023-03-12T09:16:28.642Z,100460.16
2023-03-12T09:18:55.024Z,100459.13
2023-03-12T09:21:21.499Z,100468.22
2023-03-12T09:23:47.884Z,100466.59
2023-03-12T09:26:14.623Z,100468.25
2023-03-12T09:28:42.412Z,100469.91
2023-03-12T09:31:08.860Z,100470.72
2023-03-12T09:33:35.895Z,100480.63
2023-03-12T09:36:02.979Z,100484.13
2023-03-12T09:38:31.779Z,100473.16
2023-03-12T09:40:58.843Z,100472.75
2023-03-12T09:43:25.289Z,100476.84
2023-03-12T09:45:52.327Z,100470.44
2023-03-12T09:48:41.903Z,100468.09
2023-03-12T09:51:22.012Z,100472.69
2023-03-12T09:53:55.970Z,100475.97
2023-03-12T09:56:23.374Z,100475.16
2023-03-12T09:58:50.723Z,100485.06
2023-03-12T10:01:38.805Z,100475.94
2023-03-12T10:04:14.433Z,100473.03
2023-03-12T10:07:09.820Z,100477.16
2023-03-12T10:09:36.181Z,100475.06
2023-03-12T10:12:23.946Z,100476.13
2023-03-12T10:15:03.550Z,100475.41
2023-03-12T10:17:43.704Z,100458.03
2023-03-12T10:20:31.861Z,100464.97
2023-03-12T10:23:27.989Z,100467.00
2023-03-12T10:26:14.703Z,100466.59
2023-03-12T10:28:56.219Z,100463.72
2023-03-12T10:31:27.996Z,100463.22
2023-03-12T10:33:59.986Z,100460.06
2023-03-12T10:36:36.534Z,100466.81
2023-03-12T10:39:04.619Z,100475.44
2023-03-12T10:41:34.606Z,100481.66
2023-03-12T10:44:07.598Z,100489.31
2023-03-12T10:46:37.032Z,100474.19
2023-03-12T10:49:21.815Z,100470.84
2023-03-12T10:51:56.044Z,100479.69
2023-03-12T10:54:32.946Z,100474.03
2023-03-12T10:56:59.836Z,100483.13
2023-03-12T10:59:30.409Z,100485.16
2023-03-12T11:01:57.865Z,100491.31
2023-03-12T11:04:32.313Z,100489.22
2023-03-12T11:07:07.811Z,100491.25
2023-03-12T11:09:34.599Z,100485.56
2023-03-12T11:12:01.018Z,100480.94
2023-03-12T11:14:29.952Z,100493.13
2023-03-12T11:17:16.838Z,100483.63
2023-03-12T11:19:43.254Z,100486.25
2023-03-12T11:22:11.599Z,100478.38
2023-03-12T11:24:56.626Z,100475.25
2023-03-12T11:27:44.481Z,100474.34
2023-03-12T11:30:19.339Z,100480.72
2023-03-12T11:32:49.006Z,100481.09
2023-03-12T11:35:28.768Z,100473.72
2023-03-12T11:38:01.334Z,100468.63
2023-03-12T11:40:52.093Z,100470.66
2023-03-12T11:43:47.534Z,100467.06
2023-03-12T11:46:26.845Z,100468.41
2023-03-12T11:49:17.684Z,100469.63
2023-03-12T11:51:55.340Z,100462.38
2023-03-12T11:54:44.963Z,100459.13
2023-03-12T11:57:14.272Z,100454.00
2023-03-12T11:59:54.776Z,100464.81
2023-03-12T12:02:42.416Z,100459.06
2023-03-12T12:05:08.711Z,100458.06
2023-03-12T12:07:41.220Z,100463.94
2023-03-12T12:10:35.455Z,100457.72
2023-03-12T12:13:04.788Z,100455.94
2023-03-12T12:15:59.224Z,100451.59
2023-03-12T12:18:52.869Z,100456.19
2023-03-12T12:21:43.061Z,100441.09
2023-03-12T12:24:29.575Z,100441.91
2023-03-12T12:27:08.273Z,100441.72
2023-03-12T12:29:59.063Z,100440.47
2023-03-12T12:33:09.212Z,100435.22
2023-03-12T12:35:37.991Z,100432.72
2023-03-12T12:38:22.974Z,100423.69
2023-03-12T12:41:00.361Z,100433.25
2023-03-12T12:43:38.017Z,100439.81
2023-03-12T12:46:09.719Z,100424.03
2023-03-12T12:49:08.391Z,100427.56
2023-03-12T12:51:48.844Z,100421.34
2023-03-12T12:54:51.861Z,100403.88
2023-03-12T12:57:25.163Z,100414.84
2023-03-12T13:00:06.228Z,100409.59
2023-03-12T13:02:34.454Z,100408.03
2023-03-12T13:05:01.216Z,100400.78
2023-03-12T13:07:28.179Z,100400.53
2023-03-12T13:09:57.692Z,100391.69
2023-03-12T13:12:47.518Z,100388.81
2023-03-12T13:15:29.334Z,100390.34
2023-03-12T13:17:55.752Z,100387.72
2023-03-12T13:20:28.778Z,100387.47
2023-03-12T13:23:16.390Z,100389.09
2023-03-12T13:25:57.078Z,100390.19
2023-03-12T13:28:26.418Z,100380.13
2023-03-12T13:30:53.862Z,100378.84
2023-03-12T13:33:38.802Z,100368.84
2023-03-12T13:36:28.146Z,100375.31
2023-03-12T13:39:06.802Z,100378.66
2023-03-12T13:41:40.310Z,100378.44
2023-03-12T13:44:32.963Z,100378.47
2023-03-12T13:47:00.913Z,100382.88
2023-03-12T13:49:35.508Z,100382.06
2023-03-12T13:52:18.895Z,100372.28
2023-03-12T13:54:49.192Z,100370.63
2023-03-12T13:57:31.536Z,100367.16
2023-03-12T13:59:58.973Z,100369.59
2023-03-12T14:02:32.117Z,100366.34
2023-03-12T14:05:07.668Z,100363.41
2023-03-12T14:07:52.963Z,100366.97
2023-03-12T14:10:28.418Z,100356.09
2023-03-12T14:13:17.952Z,100354.47
2023-03-12T14:16:05.606Z,100351.75
2023-03-12T14:18:35.623Z,100355.03
2023-03-12T14:21:07.161Z,100356.44
2023-03-12T14:23:38.316Z,100346.66
2023-03-12T14:26:06.685Z,100343.69
2023-03-12T14:28:40.651Z,100335.59
2023-03-12T14:31:14.954Z,100342.13
2023-03-12T14:33:50.041Z,100340.53
2023-03-12T14:36:20.379Z,100344.94
2023-03-12T14:38:51.685Z,100343.00
2023-03-12T14:41:25.665Z,100349.59
2023-03-12T14:43:53.950Z,100352.84
2023-03-12T14:46:23.106Z,100350.94
2023-03-12T14:48:51.696Z,100360.78
2023-03-12T14:51:30.506Z,100368.13
2023-03-12T14:54:03.304Z,100368.13
2023-03-12T14:56:34.733Z,100358.84
2023-03-12T14:59:20.329Z,100368.13
2023-03-12T15:01:47.790Z,100376.56
2023-03-12T15:04:21.147Z,100380.63
2023-03-12T15:06:50.831Z,100385.78
2023-03-12T15:09:21.975Z,100383.66
2023-03-12T15:11:54.818Z,100388.56
2023-03-12T15:14:22.729Z,100392.09
2023-03-12T15:16:50.729Z,100389.94
2023-03-12T15:19:22.840Z,100396.19
2023-03-12T15:21:50.489Z,100388.03
2023-03-12T15:24:18.073Z,100390.44
2023-03-12T15:26:44.552Z,100375.47
2023-03-12T15:29:26.151Z,100378.72
2023-03-12T15:31:55.671Z,100388.50
2023-03-12T15:34:37.032Z,100387.16
2023-03-12T15:37:18.924Z,100388.50
2023-03-12T15:39:49.918Z,100388.75
2023-03-12T15:42:19.763Z,100392.56
2023-03-12T15:44:49.515Z,100396.63
2023-03-12T15:47:22.600Z,100404.81
2023-03-12T15:49:53.401Z,100387.38
2023-03-12T15:52:19.718Z,100394.94
2023-03-12T15:55:09.941Z,100396.56
2023-03-12T15:57:56.772Z,100408.00
2023-03-12T16:00:25.156Z,100410.72
2023-03-12T16:03:00.584Z,100403.66
2023-03-12T16:05:33.295Z,100422.16
2023-03-12T16:08:15.808Z,100419.72
2023-03-12T16:10:42.334Z,100424.06
2023-03-12T16:13:14.163Z,100427.59
2023-03-12T16:15:40.952Z,100438.47
2023-03-12T16:18:13.140Z,100440.44
2023-03-12T16:20:39.690Z,100446.69
2023-03-12T16:23:06.073Z,100435.25
2023-03-12T16:25:32.956Z,100442.06
2023-03-12T16:28:04.864Z,100442.34
2023-03-12T16:30:34.471Z,100437.97
2023-03-12T16:33:03.083Z,100430.91
2023-03-12T16:35:33.531Z,100438.78
2023-03-12T16:38:00.983Z,100443.41
2023-03-12T16:40:33.830Z,100444.50
2023-03-12T16:43:03.515Z,100446.09
2023-03-12T16:45:33.271Z,100434.94
2023-03-12T16:48:02.990Z,100434.66
2023-03-12T16:50:30.173Z,100441.50
2023-03-12T16:52:56.945Z,100437.94
2023-03-12T16:55:27.439Z,100436.56
2023-03-12T16:57:57.888Z,100434.09
2023-03-12T17:00:27.442Z,100430.25
2023-03-12T17:02:57.804Z,100437.63
2023-03-12T17:05:29.857Z,100431.38
2023-03-12T17:07:57.449Z,100426.75
2023-03-12T17:10:25.173Z,100432.19
2023-03-12T17:12:53.256Z,100427.00
2023-03-12T17:15:30.461Z,100426.44
2023-03-12T17:17:59.019Z,100429.97
2023-03-12T17:20:25.829Z,100437.88
2023-03-12T17:22:53.135Z,100438.13
2023-03-12T17:25:24.399Z,100447.94
2023-03-12T17:27:50.945Z,100457.72
2023-03-12T17:30:18.870Z,100435.69
2023-03-12T17:32:45.230Z,100441.13
2023-03-12T17:35:11.936Z,100437.31
2023-03-12T17:37:38.346Z,100439.22
2023-03-12T17:40:08.226Z,100440.00
2023-03-12T17:42:35.965Z,100442.69
2023-03-12T17:45:07.177Z,100435.03
2023-03-12T17:47:33.613Z,100439.09
2023-03-12T17:50:00.129Z,100440.44
2023-03-12T17:52:26.710Z,100444.53
2023-03-12T17:54:53.302Z,100458.41
2023-03-12T17:57:19.719Z,100462.22
2023-03-12T17:59:46.160Z,100470.38
2023-03-12T18:02:14.290Z,100467.09
2023-03-12T18:04:41.007Z,100474.72
2023-03-12T18:07:07.749Z,100475.00
2023-03-12T18:09:34.274Z,100479.09
2023-03-12T18:12:00.993Z,100480.16
2023-03-12T18:14:27.666Z,100476.88
2023-03-12T18:16:54.039Z,100479.66
2023-03-12T18:19:20.499Z,100470.94
2023-03-12T18:21:46.904Z,100476.38
2023-03-12T18:24:14.699Z,100481.56
2023-03-12T18:26:42.156Z,100481.81
2023-03-12T18:29:08.553Z,100481.81
2023-03-12T18:31:34.972Z,100487.25
2023-03-12T18:34:01.487Z,100480.44
2023-03-12T18:36:27.936Z,100486.72
2023-03-12T18:38:54.370Z,100487.25
2023-03-12T18:41:20.827Z,100493.50
2023-03-12T18:43:47.241Z,100491.03
2023-03-12T18:46:13.746Z,100494.03
2023-03-12T18:48:42.936Z,100491.03
2023-03-12T18:51:10.554Z,100492.13
2023-03-12T18:53:36.901Z,100486.13
2023-03-12T18:56:03.520Z,100477.72
2023-03-12T18:58:30.254Z,100475.25
2023-03-12T19:00:58.007Z,100480.06
2023-03-12T19:03:26.703Z,100485.50
2023-03-12T19:06:10.781Z,100488.78
2023-03-12T19:08:37.979Z,100487.69
2023-03-12T19:11:13.329Z,100481.38
2023-03-12T19:13:39.723Z,100480.56
2023-03-12T19:16:08.938Z,100480.00
2023-03-12T19:18:36.694Z,100472.34
2023-03-12T19:21:03.483Z,100472.63
2023-03-12T19:23:30.018Z,100464.72
2023-03-12T19:25:56.428Z,100469.34
2023-03-12T19:28:22.971Z,100475.59
2023-03-12T19:30:49.540Z,100472.81
2023-03-12T19:33:16.019Z,100461.97
2023-03-12T19:35:42.978Z,100467.38
2023-03-12T19:38:09.454Z,100465.22
2023-03-12T19:40:35.904Z,100460.53
2023-03-12T19:43:02.708Z,100453.22
2023-03-12T19:45:29.311Z,100454.59
2023-03-12T19:47:55.807Z,100450.53
2023-03-12T19:50:23.838Z,100453.25
2023-03-12T19:52:50.183Z,100458.13
2023-03-12T19:55:16.644Z,100450.53
2023-03-12T19:57:43.141Z,100447.81
2023-03-12T20:00:12.074Z,100445.66
2023-03-12T20:02:39.325Z,100434.47
2023-03-12T20:05:07.142Z,100433.09
2023-03-12T20:07:33.632Z,100431.47
2023-03-12T20:10:00.311Z,100432.75
2023-03-12T20:12:26.701Z,100428.44
2023-03-12T20:14:53.305Z,100428.91
2023-03-12T20:17:19.787Z,100429.13
2023-03-12T20:19:46.222Z,100430.16
2023-03-12T20:22:13.009Z,100420.88
2023-03-12T20:24:39.534Z,100427.41
2023-03-12T20:27:06.005Z,100421.69
2023-03-12T20:29:32.485Z,100421.09
2023-03-12T20:31:58.911Z,100409.94
2023-03-12T20:34:25.594Z,100407.22
2023-03-12T20:36:52.096Z,100405.63
2023-03-12T20:39:18.558Z,100406.13
2023-03-12T20:41:45.011Z,100399.63
2023-03-12T20:44:11.508Z,100408.59
2023-03-12T20:46:37.920Z,100401.31
2023-03-12T20:49:04.398Z,100394.75
2023-03-12T20:51:31.018Z,100388.50
2023-03-12T20:53:57.702Z,100388.75
2023-03-12T20:56:24.078Z,100386.53
2023-03-12T20:58:50.562Z,100387.56
2023-03-12T21:01:16.972Z,100380.19
2023-03-12T21:03:43.372Z,100382.97
2023-03-12T21:06:09.821Z,100371.81
2023-03-12T21:08:36.246Z,100358.72
2023-03-12T21:11:06.465Z,100342.19
2023-03-12T21:13:32.859Z,100344.03
2023-03-12T21:15:59.559Z,100341.00
2023-03-12T21:18:26.146Z,100336.91
2023-03-12T21:20:52.638Z,100338.03
2023-03-12T21:23:19.000Z,100329.88
2023-03-12T21:25:45.670Z,100326.69
2023-03-12T21:28:12.179Z,100332.59
2023-03-12T21:30:39.054Z,100325.81
2023-03-12T21:33:05.770Z,100322.00
2023-03-12T21:35:32.292Z,100330.44
2023-03-12T21:37:59.066Z,100331.00
2023-03-12T21:40:25.606Z,100323.09
2023-03-12T21:42:52.143Z,100317.44
2023-03-12T21:45:18.798Z,100316.66
2023-03-12T21:47:45.282Z,100320.75
2023-03-12T21:50:11.808Z,100318.81
2023-03-12T21:52:43.700Z,100312.53
2023-03-12T21:55:10.839Z,100309.50
2023-03-12T21:57:37.796Z,100308.97
2023-03-12T22:00:05.960Z,100300.03
2023-03-12T22:02:32.468Z,100299.97
2023-03-12T22:05:00.408Z,100295.38
2023-03-12T22:07:30.111Z,100289.66
2023-03-12T22:09:56.604Z,100298.94
2023-03-12T22:12:23.491Z,100303.03
2023-03-12T22:14:49.942Z,100294.63
2023-03-12T22:17:17.200Z,100298.91
2023-03-12T22:19:43.783Z,100281.78
2023-03-12T22:22:10.214Z,100285.81
2023-03-12T22:24:37.443Z,100283.16
2023-03-12T22:27:06.474Z,100283.38
2023-03-12T22:29:33.815Z,100274.16
2023-03-12T22:32:00.151Z,100277.13
2023-03-12T22:34:26.603Z,100266.25
2023-03-12T22:36:53.110Z,100267.91
2023-03-12T22:39:19.965Z,100267.91
2023-03-12T22:41:50.770Z,100265.44
2023-03-12T22:44:17.396Z,100259.75
2023-03-12T22:46:43.946Z,100254.28
2023-03-12T22:49:10.676Z,100248.34
2023-03-12T22:51:37.392Z,100241.53
2023-03-12T22:54:04.436Z,100245.00
2023-03-12T22:56:31.023Z,100243.41
2023-03-12T22:58:57.445Z,100234.13
2023-03-12T23:01:24.829Z,100234.16
2023-03-12T23:03:51.936Z,100213.22
2023-03-12T23:06:21.526Z,100201.56
2023-03-12T23:08:48.651Z,100207.00
2023-03-12T23:11:16.632Z,100205.66
2023-03-12T23:13:44.947Z,100195.91
2023-03-12T23:16:17.146Z,100198.91
2023-03-12T23:18:43.754Z,100186.75
2023-03-12T23:21:15.620Z,100183.75
2023-03-12T23:23:43.520Z,100177.31
2023-03-12T23:26:16.538Z,100167.75
2023-03-12T23:28:43.184Z,100176.78
2023-03-12T23:31:10.533Z,100163.19
2023-03-12T23:33:37.776Z,100162.69
2023-03-12T23:36:05.871Z,100151.81
2023-03-12T23:38:32.774Z,100153.69
2023-03-12T23:41:04.447Z,100134.97
2023-03-12T23:43:30.910Z,100129.59
2023-03-12T23:45:59.329Z,100127.94
2023-03-12T23:48:27.223Z,100117.66
2023-03-12T23:50:53.999Z,100128.53
2023-03-12T23:53:20.769Z,100120.41
2023-03-12T23:55:56.183Z,100106.31
2023-03-12T23:58:23.548Z,100106.31
